Startpagina
METAR-TAF:

METAR-TAF

Vliegvelden :

Gilze-Rijen, Nederland

Vliegbasis Gilze-Rijen

breedte: 51-34N, lengte: 004-56E, hoogte: 15 m

Actueel weer

Dit bericht is 18 minuten geleden gemaakt, om 18:55 UTC
Wind 8 kt uit het westen
Temperatuur 12°C
Vochtigheid 71%
Druk 1016 hPa
Zicht 10 km of meer
Geheel bewolkt op 3600 ft
Gebroken wolken op 4000 ft

METAR: EHGR 231855Z AUTO 28004KT 9999 OVC036 12/07 Q1016 BLU 26008KT 9999 BKN040

Tijdstip: 21:13 (19:13 UTC)

Verwachting

Dit bericht is 2 uur en het 28 minuten geleden gemaakt, om 16:45 UTC
Verwachting geldig van 23 om 17 UTC tot 24 om 05 UTC
Wind 6 kt uit het westzuidwesten
Zicht 10 km of meer
Verspreide wolken op 3500 ft
Tijdelijke
van 23 om 21 UTC tot 24 om 05 UTC
Wind 12 kt uit het zuidwesten met uitschieters tot 22 kt
Kans 30% :
Tijdelijke
van 24 om 03 UTC tot 24 om 05 UTC
Verspreide wolken op 1200 ft
Gebroken wolken op 1800 ft

TAF: EHGR 231645Z 2317/2405 25006KT 9999 SCT035 TEMPO 2321/2405 22012G22KT PROB30 TEMPO 2403/2405 SCT012 BKN018

Waarnemingen en weersverwachtingen van meer dan 4000 vliegvelden (METAR en TAF).

De beschikbare stations zijn de gele en rode punten op de kaart.

Ga met uw muis naar het station om de naam te zien.

Klik dan om waarnemingen en weersverwachtingen te zien.

kaart wijzigen: klik op de groene knoppen met een zwart kruis om in te zoomen, op de groene knop met een streepje om uit te zoomen of op de groene pijlen voor aangrenzende kaarten.


METAR-TAF: